Portage, Utah
Current Conditions -  °F | °C
As of 4:51 PM on Sunday 25 Jan 2015 (Local Time) from KLGU Reporting Station
Clear Clear  
Wind Chill: 42°   Ceiling: Unl
Heat Index: 42°   Visibility: 10mi
Dew Point: 33°   Wind: 3mph
Humidity: 70%   Direction: 280°W
Pressure: 30.42"   Gusts: NA
Location:  41.98°N, 112.21°W
Report Text: KLGU 252351Z AUTO 28003KT 10SM CLR 06/01 A3042 RMK AO2 SLP310 T00560006 10067 20011 56007
Loading
Personal Weather Stations






























Interactive Weather Map New forecast layout! Learn more

10-Day Weather Forecast

Advertisements
Track Severe Weather on mobile